Bookmark and Share
Track history (hours):
 

Oriana (Bermuda)

Last reported at 2014-Apr-23 08:33 UTC. Time now 2014-Apr-23 14:20 UTC.
Position N 38°42' W 009°10'.

Length 261 m; beam 32.2 m; draft 8.2 m.

Type: Ship. MMSI: 310529000.

NotesDate/timePositionNaut miles runAvg speedWind from/ knotsBaromVisibWave heightAir tempDewpointWater temp
2014-Apr-23 08:33N 38°42' W 009°10'0 0.2
2014-Apr-23 07:21N 38°42' W 009°10'810.1
2014-Apr-23 06:33N 38°39' W 009°20'  
2014-Apr-20 20:32N 50°18' W 001°47'1414.5
2014-Apr-20 19:33N 50°24' W 001°28'1515.3
2014-Apr-20 18:33N 50°32' W 001°06'1212.1
2014-Apr-20 17:33N 50°43' W 001°02'1312.6
2014-Apr-20 16:33N 50°50' W 001°19'5 4.9
2014-Apr-20 15:32N 50°53' W 001°24'0 0.0
2014-Apr-20 14:32N 50°53' W 001°24'0 0.0
2014-Apr-20 13:32N 50°53' W 001°24'0 0.0
2014-Apr-20 12:32N 50°53' W 001°24'0 0.0
2014-Apr-20 11:32N 50°53' W 001°24'0 0.0
2014-Apr-20 10:32N 50°53' W 001°24'0 0.0
2014-Apr-20 09:32N 50°53' W 001°24'0 0.1
2014-Apr-20 07:33N 50°53' W 001°24'7 7.3
2014-Apr-20 06:33N 50°47' W 001°19'1414.4
2014-Apr-20 05:33N 50°40' W 000°59'10 9.7
2014-Apr-20 04:33N 50°36' W 000°45'1413.8
2014-Apr-20 03:33N 50°33' W 000°24'2713.0
2014-Apr-20 01:30N 50°35' E 000°18'1111.6
2014-Apr-20 00:33N 50°38' E 000°35'1111.3
2014-Apr-19 23:34N 50°44' E 000°50'1312.5
2014-Apr-19 22:33N 50°52' E 001°05'1717.2
2014-Apr-19 21:33N 51°03' E 001°26'1616.6
2014-Apr-19 20:33N 51°14' E 001°46'1514.6
2014-Apr-19 19:32N 51°24' E 002°03'1414.1
2014-Apr-19 18:33N 51°22' E 002°25'1615.9
2014-Apr-19 17:33N 51°22' E 002°51'1413.6
2014-Apr-19 16:33N 51°21' E 003°12'0 0.3
2014-Apr-19 15:29N 51°20' E 003°12'0 0.0
2014-Apr-19 14:26N 51°20' E 003°12'0 0.0
2014-Apr-19 13:32N 51°20' E 003°12'0 0.0
2014-Apr-19 12:29N 51°20' E 003°12'0 0.0
2014-Apr-19 11:26N 51°20' E 003°12'0 0.0
2014-Apr-19 10:31N 51°20' E 003°12'0 0.0
2014-Apr-19 09:33N 51°20' E 003°12'0 0.0
2014-Apr-19 08:33N 51°20' E 003°12'0 0.0
2014-Apr-19 07:33N 51°20' E 003°12'0 0.0
2014-Apr-19 06:33N 51°20' E 003°12'0 0.0
2014-Apr-19 05:33N 51°20' E 003°12'8 7.9
2014-Apr-19 04:33N 51°24' E 003°01'1514.9
2014-Apr-19 03:33N 51°22' E 002°38'1816.9
2014-Apr-19 02:29N 51°16' E 002°11'1516.8
2014-Apr-19 01:33N 51°08' E 001°49'2017.4
2014-Apr-19 00:25N 50°53' E 001°28'1916.9
2014-Apr-18 23:17N 50°36' E 001°14'1217.1
2014-Apr-18 22:33N 50°28' E 000°59'5116.9
2014-Apr-18 19:33N 50°25' W 000°20'1716.9
2014-Apr-18 18:33N 50°34' W 000°42'1515.2
2014-Apr-18 17:33N 50°43' W 001°01'1313.1
2014-Apr-18 16:33N 50°50' W 001°19'5 4.7
2014-Apr-18 15:33N 50°53' W 001°24'0 0.0
2014-Apr-18 14:33N 50°53' W 001°24'0 0.0
2014-Apr-18 13:33N 50°53' W 001°24'0 0.0
2014-Apr-18 12:33N 50°53' W 001°24'0 0.0
2014-Apr-18 11:33N 50°53' W 001°24'0 0.0
2014-Apr-18 10:33N 50°53' W 001°24'0 0.0
2014-Apr-18 09:25N 50°53' W 001°24'0 0.0
2014-Apr-18 08:04N 50°53' W 001°24'0 0.0
2014-Apr-18 07:19N 50°53' W 001°24'0 0.0
2014-Apr-18 06:22N 50°53' W 001°24'0 0.0
2014-Apr-18 05:04N 50°53' W 001°24'0 0.3
2014-Apr-18 04:33N 50°53' W 001°24'8 7.9
2014-Apr-18 03:33N 50°46' W 001°18'1414.5
2014-Apr-18 02:33N 50°39' W 000°58'1211.5
2014-Apr-18 01:33N 50°31' W 001°10'1414.5
2014-Apr-18 00:33N 50°26' W 001°32'1616.0
2014-Apr-17 23:33N 50°22' W 001°56'  
2014-Apr-14 21:34N 39°14' W 027°22'1716.6
2014-Apr-14 20:34N 39°06' W 027°41'1716.7
2014-Apr-14 19:34N 38°57' W 027°59'1717.0
2014-Apr-14 18:34N 38°49' W 028°18'1616.4
2014-Apr-14 17:34N 38°36' W 028°32'6 5.6
2014-Apr-14 16:31N 38°32' W 028°37'0 0.0
2014-Apr-14 15:31N 38°32' W 028°37'0 0.0
2014-Apr-14 14:31N 38°32' W 028°37'0 0.0
2014-Apr-14 13:31N 38°32' W 028°37'14 9.2
2014-Apr-14 12:00N 38°18' W 028°36'1429.7 050 / 91019.010.8 16.5 7.615.0
2014-Apr-14 11:31N 38°32' W 028°37'0 0.0
2014-Apr-14 10:31N 38°32' W 028°37'0 0.0
2014-Apr-14 09:31N 38°32' W 028°37'0 0.1
2014-Apr-14 06:33N 38°32' W 028°37'1313.2
2014-Apr-14 05:33N 38°23' W 028°49'  

Dump ship's entire track history

sailing weather and tide predictions

Oriana — ZCDU9 — position and weather